ENVA

Trondheim , Værnes Airport

Trondheim, Norway
METAR ENVA 172050Z 09004KT CAVOK M05/M05 Q1019 RMK WIND 670FT 12007KT
Observed Flight Rules
Feb-17 @ 20:50 UTC (46 minutes ago) Visual Flight Rules
Wind Visibility Clouds
90° at 4 knots 10,000+ meters
  • Clear skies
Temperatures Readings
Current -5°C / 23°F
Dewpoint -5°C / 23°F
Humidity 100%
Altimeter 30.09" Hg
Pressure 1019 hPa
Elevation 17
METAR ENVA 172050Z 09004KT CAVOK M05/M05 Q1019 RMK WIND 670FT 12007KT
Observed Flight Rules
Feb-17 @ 20:50 UTC
(46 minutes ago)
VFR
Wind Visibility
90° at 4 knots 10,000+ meters
Clouds
  • Clear skies
Temperature Dewpoint
-5°C / 23°F -5°C / 23°F
Humidity Altimeter Pressure
100% 30.09" Hg 1019 hPa